createdAt,value
2019-05-05T00:00:07.477Z,31.70
2019-05-05T00:01:07.488Z,30.90
2019-05-05T00:02:07.485Z,32.40
2019-05-05T00:03:07.439Z,31.20
2019-05-05T00:04:07.432Z,35.30
2019-05-05T00:05:08.677Z,33.80
2019-05-05T00:06:07.404Z,36.20
2019-05-05T00:07:07.432Z,38.20
2019-05-05T00:08:07.404Z,37.90
2019-05-05T00:09:07.371Z,36.00
2019-05-05T00:10:07.377Z,37.70
2019-05-05T00:11:07.367Z,38.90
2019-05-05T00:12:07.387Z,34.30
2019-05-05T00:13:07.336Z,35.20
2019-05-05T00:14:07.334Z,38.50
2019-05-05T00:15:07.326Z,39.10
2019-05-05T00:16:07.293Z,43.00
2019-05-05T00:17:07.307Z,43.20
2019-05-05T00:18:07.273Z,40.80
2019-05-05T00:19:07.274Z,42.60
2019-05-05T00:20:07.300Z,39.20
2019-05-05T00:21:07.280Z,39.60
2019-05-05T00:22:07.243Z,39.70
2019-05-05T00:23:07.214Z,40.70
2019-05-05T00:24:07.205Z,39.10
2019-05-05T00:25:07.224Z,38.80
2019-05-05T00:26:07.214Z,37.30
2019-05-05T00:27:07.189Z,40.60
2019-05-05T00:28:07.159Z,41.60
2019-05-05T00:29:07.171Z,38.60
2019-05-05T00:30:07.177Z,42.30
2019-05-05T00:31:07.141Z,42.20
2019-05-05T00:32:07.148Z,42.40
2019-05-05T00:33:07.113Z,42.00
2019-05-05T00:34:07.113Z,41.30
2019-05-05T00:35:07.124Z,46.30
2019-05-05T00:36:07.801Z,46.90
2019-05-05T00:37:07.068Z,46.80
2019-05-05T00:38:07.081Z,45.90
2019-05-05T00:39:07.050Z,49.20
2019-05-05T00:40:07.031Z,46.70
2019-05-05T00:41:07.029Z,46.80
2019-05-05T00:42:07.013Z,44.70
2019-05-05T00:43:06.999Z,44.40
2019-05-05T00:44:07.014Z,44.10
2019-05-05T00:45:07.003Z,47.10
2019-05-05T00:46:06.971Z,49.10
2019-05-05T00:47:06.953Z,43.80
2019-05-05T00:48:06.959Z,43.40
2019-05-05T00:49:06.975Z,42.10
2019-05-05T00:50:06.954Z,42.70
2019-05-05T00:51:06.916Z,44.40
2019-05-05T00:52:06.966Z,42.90
2019-05-05T00:53:06.899Z,42.20
2019-05-05T00:54:06.876Z,36.50
2019-05-05T00:55:06.894Z,40.80
2019-05-05T00:56:06.889Z,42.20
2019-05-05T00:57:06.844Z,39.00
2019-05-05T00:58:06.862Z,39.60
2019-05-05T00:59:06.841Z,39.60
2019-05-05T01:00:06.835Z,40.70
2019-05-05T01:01:06.821Z,40.40
2019-05-05T01:02:06.821Z,43.90
2019-05-05T01:03:06.776Z,41.50
2019-05-05T01:04:06.793Z,41.50
2019-05-05T01:05:06.760Z,39.40
2019-05-05T01:06:06.757Z,38.60
2019-05-05T01:07:06.744Z,34.20
2019-05-05T01:08:06.777Z,37.80
2019-05-05T01:09:06.739Z,40.30
2019-05-05T01:10:06.716Z,42.10
2019-05-05T01:11:06.694Z,41.00
2019-05-05T01:12:06.711Z,41.60
2019-05-05T01:13:06.682Z,39.40
2019-05-05T01:14:06.676Z,41.30
2019-05-05T01:15:06.651Z,42.90
2019-05-05T01:16:06.640Z,42.30
2019-05-05T01:17:06.625Z,41.70
2019-05-05T01:18:06.614Z,45.60
2019-05-05T01:19:06.636Z,41.70
2019-05-05T01:20:06.912Z,45.60
2019-05-05T01:21:06.580Z,41.90
2019-05-05T01:22:06.576Z,42.90
2019-05-05T01:23:06.568Z,42.40
2019-05-05T01:24:06.552Z,49.10
2019-05-05T01:25:06.539Z,51.00
2019-05-05T01:26:06.556Z,52.10
2019-05-05T01:27:06.511Z,57.30
2019-05-05T01:28:06.504Z,60.80
2019-05-05T01:29:06.495Z,63.00
2019-05-05T01:30:06.477Z,60.40
2019-05-05T01:31:06.493Z,65.00
2019-05-05T01:32:06.486Z,58.40
2019-05-05T01:33:06.447Z,63.50
2019-05-05T01:34:06.433Z,73.80
2019-05-05T01:35:06.428Z,75.70
2019-05-05T01:36:06.433Z,77.00
2019-05-05T01:37:06.441Z,88.00
2019-05-05T01:38:06.418Z,80.50
2019-05-05T01:39:06.388Z,80.80
2019-05-05T01:40:06.395Z,90.90
2019-05-05T01:41:06.409Z,81.00
2019-05-05T01:42:06.366Z,84.90
2019-05-05T01:43:06.337Z,92.60
2019-05-05T01:44:06.346Z,88.70
2019-05-05T01:45:06.311Z,103.30
2019-05-05T01:46:06.308Z,94.80
2019-05-05T01:47:06.303Z,105.70
2019-05-05T01:48:06.280Z,76.80
2019-05-05T01:49:06.268Z,88.40
2019-05-05T01:50:17.219Z,102.50
2019-05-05T01:51:07.243Z,89.00
2019-05-05T01:52:06.248Z,81.60
2019-05-05T01:53:06.232Z,72.70
2019-05-05T01:54:06.216Z,95.00
2019-05-05T01:55:06.239Z,101.60
2019-05-05T01:56:06.219Z,82.00
2019-05-05T01:57:06.183Z,104.20
2019-05-05T01:58:06.185Z,102.00
2019-05-05T01:59:06.177Z,102.20
2019-05-05T02:00:06.187Z,105.60
2019-05-05T02:01:06.163Z,83.40
2019-05-05T02:02:06.159Z,103.00
2019-05-05T02:03:06.115Z,75.60
2019-05-05T02:04:06.127Z,105.80
2019-05-05T02:05:06.104Z,90.30
2019-05-05T02:06:06.089Z,87.90
2019-05-05T02:07:06.089Z,65.80
2019-05-05T02:08:06.087Z,90.70
2019-05-05T02:09:06.051Z,81.40
2019-05-05T02:10:06.274Z,65.90
2019-05-05T02:11:06.031Z,58.20
2019-05-05T02:12:06.014Z,58.20
2019-05-05T02:13:06.001Z,54.70
2019-05-05T02:14:06.018Z,55.10
2019-05-05T02:15:05.980Z,67.30
2019-05-05T02:16:05.970Z,53.10
2019-05-05T02:17:05.960Z,53.80
2019-05-05T02:18:05.946Z,50.00
2019-05-05T02:19:05.933Z,48.00
2019-05-05T02:20:05.944Z,49.30
2019-05-05T02:21:05.926Z,47.20
2019-05-05T02:22:05.922Z,42.70
2019-05-05T02:23:05.894Z,43.10
2019-05-05T02:24:05.915Z,42.90
2019-05-05T02:25:05.904Z,43.80
2019-05-05T02:26:05.884Z,44.40
2019-05-05T02:27:05.850Z,45.00
2019-05-05T02:28:05.836Z,47.50
2019-05-05T02:29:05.847Z,45.60
2019-05-05T02:30:06.473Z,45.20
2019-05-05T02:31:05.862Z,41.60
2019-05-05T02:32:06.555Z,39.50
2019-05-05T02:33:06.460Z,41.10
2019-05-05T02:34:05.781Z,35.80
2019-05-05T02:35:06.588Z,39.40
2019-05-05T02:36:05.888Z,38.80
2019-05-05T02:37:05.753Z,37.30
2019-05-05T02:38:06.613Z,38.30
2019-05-05T02:39:05.750Z,38.10
2019-05-05T02:40:07.632Z,36.40
2019-05-05T02:41:05.703Z,35.50
2019-05-05T02:42:05.991Z,36.60
2019-05-05T02:43:05.712Z,35.00
2019-05-05T02:44:05.681Z,34.20
2019-05-05T02:45:05.841Z,34.10
2019-05-05T02:46:05.853Z,32.60
2019-05-05T02:47:05.630Z,30.60
2019-05-05T02:48:06.166Z,31.70
2019-05-05T02:49:05.756Z,32.60
2019-05-05T02:50:05.644Z,35.10
2019-05-05T02:51:06.909Z,33.90
2019-05-05T02:52:05.576Z,33.40
2019-05-05T02:53:05.578Z,32.40
2019-05-05T02:54:05.556Z,34.30
2019-05-05T02:55:05.538Z,34.30
2019-05-05T02:56:05.575Z,34.40
2019-05-05T02:57:05.517Z,34.10
2019-05-05T02:58:05.537Z,32.40
2019-05-05T02:59:05.502Z,37.50
2019-05-05T03:00:05.499Z,36.40
2019-05-05T03:01:05.493Z,36.90
2019-05-05T03:02:05.484Z,38.40
2019-05-05T03:03:05.477Z,35.00
2019-05-05T03:04:05.461Z,39.10
2019-05-05T03:05:05.454Z,48.90
2019-05-05T03:06:05.422Z,54.00
2019-05-05T03:07:05.424Z,54.40
2019-05-05T03:08:05.457Z,46.90
2019-05-05T03:09:05.386Z,49.10
2019-05-05T03:10:05.401Z,43.00
2019-05-05T03:11:05.409Z,48.60
2019-05-05T03:12:05.365Z,50.00
2019-05-05T03:13:05.343Z,47.50
2019-05-05T03:14:05.351Z,43.80
2019-05-05T03:15:05.325Z,42.90
2019-05-05T03:16:05.303Z,47.80
2019-05-05T03:17:05.298Z,45.40
2019-05-05T03:18:05.311Z,52.30
2019-05-05T03:19:05.288Z,44.70
2019-05-05T03:20:05.280Z,44.50
2019-05-05T03:21:07.488Z,39.10
2019-05-05T03:22:05.243Z,40.30
2019-05-05T03:23:05.230Z,41.20
2019-05-05T03:24:05.214Z,42.00
2019-05-05T03:25:05.227Z,42.40
2019-05-05T03:26:05.210Z,40.30
2019-05-05T03:27:05.192Z,38.80
2019-05-05T03:28:05.175Z,42.40
2019-05-05T03:29:05.166Z,42.60
2019-05-05T03:30:05.351Z,37.30
2019-05-05T03:31:05.286Z,35.80
2019-05-05T03:32:05.864Z,38.80
2019-05-05T03:33:05.696Z,41.70
2019-05-05T03:34:06.152Z,39.40
2019-05-05T03:35:05.111Z,36.90
2019-05-05T03:36:05.134Z,37.50
2019-05-05T03:37:05.074Z,38.90
2019-05-05T03:38:05.086Z,38.20
2019-05-05T03:39:05.200Z,39.30
2019-05-05T03:40:05.056Z,38.30
2019-05-05T03:41:05.043Z,35.20
2019-05-05T03:42:05.017Z,36.50
2019-05-05T03:43:05.021Z,32.90
2019-05-05T03:44:05.023Z,34.10
2019-05-05T03:45:04.993Z,32.90
2019-05-05T03:46:04.979Z,32.20
2019-05-05T03:47:04.987Z,31.00
2019-05-05T03:48:04.953Z,31.00
2019-05-05T03:49:04.986Z,29.70
2019-05-05T03:50:04.958Z,29.20
2019-05-05T03:51:16.081Z,29.70
2019-05-05T03:52:05.921Z,28.60
2019-05-05T03:53:05.048Z,26.30
2019-05-05T03:54:04.888Z,24.80
2019-05-05T03:55:04.885Z,25.50
2019-05-05T03:56:04.910Z,26.30
2019-05-05T03:57:04.882Z,31.70
2019-05-05T03:58:04.855Z,30.20
2019-05-05T03:59:05.059Z,33.50
2019-05-05T04:00:04.817Z,31.80
2019-05-05T04:01:04.844Z,33.60
2019-05-05T04:02:04.849Z,33.40
2019-05-05T04:03:04.800Z,36.40
2019-05-05T04:04:04.790Z,36.30
2019-05-05T04:05:04.793Z,30.90
2019-05-05T04:06:04.760Z,33.10
2019-05-05T04:07:04.960Z,34.70
2019-05-05T04:08:04.783Z,34.10
2019-05-05T04:09:04.720Z,36.40
2019-05-05T04:10:04.726Z,37.30
2019-05-05T04:11:04.713Z,38.30
2019-05-05T04:12:04.717Z,38.00
2019-05-05T04:13:04.820Z,39.50
2019-05-05T04:14:04.700Z,37.90
2019-05-05T04:15:04.692Z,39.50
2019-05-05T04:16:04.681Z,35.80
2019-05-05T04:17:04.647Z,38.10
2019-05-05T04:18:04.641Z,38.30
2019-05-05T04:19:04.607Z,38.20
2019-05-05T04:20:04.630Z,41.20
2019-05-05T04:21:04.596Z,41.70
2019-05-05T04:22:04.609Z,41.20
2019-05-05T04:23:04.581Z,40.80
2019-05-05T04:24:04.562Z,38.80
2019-05-05T04:25:04.724Z,40.80
2019-05-05T04:26:04.552Z,41.60
2019-05-05T04:27:04.530Z,45.00
2019-05-05T04:28:04.618Z,43.20
2019-05-05T04:29:05.283Z,39.30
2019-05-05T04:30:04.510Z,39.40
2019-05-05T04:31:04.490Z,37.90
2019-05-05T04:32:04.758Z,37.90
2019-05-05T04:33:04.463Z,39.30
2019-05-05T04:34:04.444Z,40.10
2019-05-05T04:35:04.434Z,39.60
2019-05-05T04:36:04.459Z,39.80
2019-05-05T04:37:04.428Z,39.10
2019-05-05T04:38:04.876Z,43.60
2019-05-05T04:39:04.417Z,45.90
2019-05-05T04:40:04.416Z,49.80
2019-05-05T04:41:04.371Z,53.20
2019-05-05T04:42:04.860Z,48.70
2019-05-05T04:43:04.347Z,49.10
2019-05-05T04:44:04.385Z,49.10
2019-05-05T04:45:04.344Z,47.80
2019-05-05T04:46:04.581Z,51.40
2019-05-05T04:47:04.302Z,52.50
2019-05-05T04:48:04.398Z,56.80
2019-05-05T04:49:04.283Z,61.30
2019-05-05T04:50:04.423Z,56.40
2019-05-05T04:51:04.760Z,53.80
2019-05-05T04:52:04.247Z,54.90
2019-05-05T04:53:04.578Z,55.70
2019-05-05T04:54:04.224Z,56.00
2019-05-05T04:55:04.235Z,52.20
2019-05-05T04:56:04.388Z,50.90
2019-05-05T04:57:04.593Z,50.50
2019-05-05T04:58:04.677Z,56.40
2019-05-05T04:59:04.227Z,57.40
2019-05-05T05:00:04.260Z,57.80
2019-05-05T05:01:04.736Z,56.30
2019-05-05T05:02:04.192Z,52.70
2019-05-05T05:03:04.546Z,50.80
2019-05-05T05:04:04.114Z,52.90
2019-05-05T05:05:04.211Z,50.80
2019-05-05T05:06:04.233Z,48.40
2019-05-05T05:07:04.747Z,46.80
2019-05-05T05:08:04.098Z,43.30
2019-05-05T05:09:04.148Z,41.20
2019-05-05T05:10:04.569Z,42.10
2019-05-05T05:11:04.067Z,41.10
2019-05-05T05:12:04.154Z,39.80
2019-05-05T05:13:04.630Z,36.70
2019-05-05T05:14:04.027Z,37.30
2019-05-05T05:15:04.413Z,38.50
2019-05-05T05:16:04.592Z,39.60
2019-05-05T05:17:04.023Z,34.80
2019-05-05T05:18:04.174Z,32.90
2019-05-05T05:19:04.371Z,31.80
2019-05-05T05:20:03.960Z,31.10
2019-05-05T05:21:04.117Z,32.00
2019-05-05T05:22:04.981Z,30.70
2019-05-05T05:23:03.929Z,28.60
2019-05-05T05:24:04.107Z,31.10
2019-05-05T05:25:04.535Z,30.00
2019-05-05T05:26:05.105Z,29.60
2019-05-05T05:27:05.011Z,28.80
2019-05-05T05:28:04.322Z,27.30
2019-05-05T05:29:04.551Z,27.00
2019-05-05T05:30:04.671Z,27.40
2019-05-05T05:31:04.037Z,26.80
2019-05-05T05:32:04.290Z,24.70
2019-05-05T05:33:04.438Z,26.50
2019-05-05T05:34:04.399Z,26.20
2019-05-05T05:35:03.868Z,24.70
2019-05-05T05:36:04.153Z,25.30
2019-05-05T05:37:04.330Z,25.30
2019-05-05T05:38:04.615Z,24.60
2019-05-05T05:39:03.726Z,23.50
2019-05-05T05:40:03.990Z,22.00
2019-05-05T05:41:04.265Z,23.40
2019-05-05T05:42:04.521Z,22.20
2019-05-05T05:43:04.668Z,22.70
2019-05-05T05:44:03.729Z,21.10
2019-05-05T05:45:04.152Z,22.80
2019-05-05T05:46:04.403Z,19.60
2019-05-05T05:47:03.744Z,19.00
2019-05-05T05:48:04.164Z,17.80
2019-05-05T05:49:04.509Z,18.80
2019-05-05T05:50:04.119Z,20.00
2019-05-05T05:51:04.218Z,18.60
2019-05-05T05:52:13.389Z,16.50
2019-05-05T05:53:04.846Z,16.50
2019-05-05T05:54:03.800Z,17.20
2019-05-05T05:55:04.164Z,16.90
2019-05-05T05:56:04.358Z,16.00
2019-05-05T05:57:04.339Z,16.20
2019-05-05T05:58:04.845Z,17.40
2019-05-05T05:59:03.711Z,17.40
2019-05-05T06:00:04.099Z,16.80
2019-05-05T06:01:04.282Z,15.80
2019-05-05T06:02:09.875Z,17.10
2019-05-05T06:03:04.468Z,17.10
2019-05-05T06:04:04.076Z,14.60
2019-05-05T06:05:04.366Z,17.60
2019-05-05T06:06:04.701Z,17.20
2019-05-05T06:07:04.094Z,15.40
2019-05-05T06:08:04.782Z,14.70
2019-05-05T06:09:04.264Z,14.30
2019-05-05T06:10:03.822Z,15.60
2019-05-05T06:11:04.412Z,16.30
2019-05-05T06:12:03.647Z,16.00
2019-05-05T06:13:04.131Z,15.60
2019-05-05T06:14:04.001Z,14.10
2019-05-05T06:15:03.832Z,15.70
2019-05-05T06:16:04.260Z,12.90
2019-05-05T06:17:04.263Z,15.40
2019-05-05T06:18:04.656Z,15.90
2019-05-05T06:19:03.751Z,14.50
2019-05-05T06:20:04.036Z,14.80
2019-05-05T06:21:04.493Z,17.40
2019-05-05T06:22:03.624Z,16.80
2019-05-05T06:23:04.084Z,16.30
2019-05-05T06:24:04.524Z,16.40
2019-05-05T06:25:06.528Z,15.40
2019-05-05T06:26:06.820Z,15.50
2019-05-05T06:27:03.726Z,16.80
2019-05-05T06:28:04.306Z,15.50
2019-05-05T06:29:04.370Z,14.30
2019-05-05T06:30:04.530Z,12.60
2019-05-05T06:31:04.850Z,13.10
2019-05-05T06:32:03.993Z,12.30
2019-05-05T06:33:04.899Z,13.40
2019-05-05T06:34:03.684Z,13.00
2019-05-05T06:35:03.664Z,12.70
2019-05-05T06:36:03.805Z,12.90
2019-05-05T06:37:04.252Z,12.50
2019-05-05T06:38:04.711Z,13.80
2019-05-05T06:39:04.579Z,14.10
2019-05-05T06:40:03.782Z,12.40
2019-05-05T06:41:04.211Z,13.50
2019-05-05T06:42:04.508Z,10.70
2019-05-05T06:43:04.474Z,10.70
2019-05-05T06:44:03.756Z,10.80
2019-05-05T06:45:04.163Z,11.00
2019-05-05T06:46:04.054Z,10.50
2019-05-05T06:47:04.646Z,10.80
2019-05-05T06:48:04.310Z,12.20
2019-05-05T06:49:04.335Z,11.50
2019-05-05T06:50:03.681Z,11.40
2019-05-05T06:51:03.985Z,11.40
2019-05-05T06:52:04.026Z,10.90
2019-05-05T06:53:04.287Z,11.90
2019-05-05T06:54:04.662Z,11.10
2019-05-05T06:55:03.752Z,10.50
2019-05-05T06:56:04.043Z,10.90
2019-05-05T06:57:04.523Z,11.10
2019-05-05T06:58:04.582Z,10.50
2019-05-05T06:59:04.452Z,10.50
2019-05-05T07:00:03.653Z,11.20
2019-05-05T07:01:03.607Z,11.10
2019-05-05T07:02:04.234Z,12.00
2019-05-05T07:03:05.830Z,10.60
2019-05-05T07:04:03.467Z,11.60
2019-05-05T07:05:04.041Z,11.60
2019-05-05T07:06:04.232Z,11.80
2019-05-05T07:07:04.909Z,11.60
2019-05-05T07:08:04.429Z,11.70
2019-05-05T07:09:02.730Z,10.50
2019-05-05T07:10:03.753Z,10.80
2019-05-05T07:11:04.109Z,12.20
2019-05-05T07:12:04.553Z,11.40
2019-05-05T07:13:04.830Z,12.50
2019-05-05T07:14:03.716Z,10.70
2019-05-05T07:15:04.194Z,11.20
2019-05-05T07:16:04.735Z,11.90
2019-05-05T07:17:04.913Z,10.60
2019-05-05T07:18:03.699Z,13.90
2019-05-05T07:19:04.377Z,13.00
2019-05-05T07:20:04.338Z,13.80
2019-05-05T07:21:03.626Z,13.50
2019-05-05T07:22:04.074Z,12.60
2019-05-05T07:23:05.269Z,12.10
2019-05-05T07:24:03.994Z,11.90
2019-05-05T07:25:04.617Z,12.40
2019-05-05T07:26:04.189Z,11.40
2019-05-05T07:27:04.559Z,12.30
2019-05-05T07:28:04.269Z,12.80
2019-05-05T07:29:04.478Z,12.20
2019-05-05T07:30:04.594Z,12.70
2019-05-05T07:31:04.441Z,13.30
2019-05-05T07:32:03.974Z,14.50
2019-05-05T07:33:04.462Z,15.20
2019-05-05T07:34:04.688Z,15.30
2019-05-05T07:35:04.119Z,16.50
2019-05-05T07:36:05.855Z,15.90
2019-05-05T07:37:03.833Z,16.40
2019-05-05T07:38:04.372Z,17.60
2019-05-05T07:39:03.803Z,17.40
2019-05-05T07:40:04.203Z,18.90
2019-05-05T07:41:03.651Z,19.60
2019-05-05T07:42:04.429Z,21.00
2019-05-05T07:43:04.362Z,21.50
2019-05-05T07:44:02.378Z,22.50
2019-05-05T07:45:05.443Z,22.10
2019-05-05T07:46:04.451Z,21.30
2019-05-05T07:47:03.662Z,21.30
2019-05-05T07:48:04.639Z,20.70
2019-05-05T07:49:03.864Z,22.00
2019-05-05T07:50:04.138Z,23.70
2019-05-05T07:51:05.051Z,23.60
2019-05-05T07:52:04.054Z,23.80
2019-05-05T07:53:12.275Z,24.10
2019-05-05T07:54:03.919Z,23.50
2019-05-05T07:55:03.614Z,22.80
2019-05-05T07:56:03.941Z,24.30
2019-05-05T07:57:04.158Z,24.80
2019-05-05T07:58:04.190Z,25.60
2019-05-05T07:59:03.822Z,26.40
2019-05-05T08:00:02.191Z,26.10
2019-05-05T08:01:02.184Z,27.70
2019-05-05T08:02:03.989Z,27.30
2019-05-05T08:03:03.720Z,28.10
2019-05-05T08:04:04.295Z,29.60
2019-05-05T08:05:02.141Z,30.70
2019-05-05T08:06:03.924Z,29.20
2019-05-05T08:07:04.017Z,28.00
2019-05-05T08:08:04.451Z,27.50
2019-05-05T08:09:03.945Z,27.90
2019-05-05T08:10:04.388Z,28.90
2019-05-05T08:11:02.080Z,30.10
2019-05-05T08:12:04.212Z,34.50
2019-05-05T08:13:02.053Z,33.20
2019-05-05T08:14:04.020Z,34.90
2019-05-05T08:15:04.154Z,34.70
2019-05-05T08:16:03.812Z,34.40
2019-05-05T08:17:03.607Z,34.70
2019-05-05T08:18:01.995Z,36.10
2019-05-05T08:19:03.836Z,35.20
2019-05-05T08:20:03.962Z,36.50
2019-05-05T08:21:04.081Z,36.30
2019-05-05T08:22:03.687Z,34.60
2019-05-05T08:23:04.128Z,35.70
2019-05-05T08:24:01.962Z,36.70
2019-05-05T08:25:03.884Z,36.60
2019-05-05T08:26:01.929Z,37.10
2019-05-05T08:27:04.371Z,38.00
2019-05-05T08:28:04.154Z,38.90
2019-05-05T08:29:01.895Z,37.60
2019-05-05T08:30:05.008Z,38.40
2019-05-05T08:31:03.813Z,38.70
2019-05-05T08:32:04.231Z,37.20
2019-05-05T08:33:01.841Z,37.60
2019-05-05T08:34:03.858Z,37.90
2019-05-05T08:35:04.206Z,36.70
2019-05-05T08:36:01.811Z,37.80
2019-05-05T08:37:03.764Z,39.00
2019-05-05T08:38:01.848Z,38.70
2019-05-05T08:39:03.634Z,39.20
2019-05-05T08:40:01.771Z,38.50
2019-05-05T08:41:01.751Z,38.40
2019-05-05T08:42:04.121Z,40.00
2019-05-05T08:43:01.742Z,37.10
2019-05-05T08:44:03.509Z,38.40
2019-05-05T08:45:01.707Z,38.60
2019-05-05T08:46:01.695Z,39.90
2019-05-05T08:47:01.689Z,39.60
2019-05-05T08:48:01.687Z,39.70
2019-05-05T08:49:01.677Z,40.00
2019-05-05T08:50:01.672Z,39.80
2019-05-05T08:51:01.638Z,38.90
2019-05-05T08:52:03.865Z,38.60
2019-05-05T08:53:01.629Z,39.40
2019-05-05T08:54:03.768Z,37.50
2019-05-05T08:55:01.594Z,39.40
2019-05-05T08:56:01.599Z,37.10
2019-05-05T08:57:01.577Z,37.50
2019-05-05T08:58:01.564Z,38.20
2019-05-05T08:59:03.546Z,39.00
2019-05-05T09:00:01.536Z,38.30
2019-05-05T09:01:01.534Z,38.80
2019-05-05T09:02:01.541Z,36.20
2019-05-05T09:03:03.587Z,36.40
2019-05-05T09:04:01.495Z,34.40
2019-05-05T09:05:01.484Z,35.80
2019-05-05T09:06:01.470Z,35.80
2019-05-05T09:07:01.456Z,35.90
2019-05-05T09:08:01.479Z,36.10
2019-05-05T09:09:03.690Z,33.80
2019-05-05T09:10:03.740Z,34.50
2019-05-05T09:11:01.411Z,33.50
2019-05-05T09:12:01.396Z,33.10
2019-05-05T09:13:03.673Z,33.50
2019-05-05T09:14:01.393Z,33.30
2019-05-05T09:15:01.363Z,34.40
2019-05-05T09:16:03.580Z,34.30
2019-05-05T09:17:01.343Z,34.20
2019-05-05T09:18:01.326Z,34.40
2019-05-05T09:19:01.318Z,31.30
2019-05-05T09:20:01.334Z,29.60
2019-05-05T09:21:01.303Z,31.20
2019-05-05T09:22:01.284Z,30.30
2019-05-05T09:23:01.265Z,30.70
2019-05-05T09:24:03.283Z,29.90
2019-05-05T09:25:01.247Z,28.30
2019-05-05T09:26:01.247Z,28.60
2019-05-05T09:27:03.477Z,24.20
2019-05-05T09:28:03.143Z,27.10
2019-05-05T09:29:01.195Z,25.50
2019-05-05T09:30:01.182Z,26.20
2019-05-05T09:31:01.191Z,27.00
2019-05-05T09:32:01.185Z,27.70
2019-05-05T09:33:01.157Z,25.80
2019-05-05T09:34:01.140Z,25.40
2019-05-05T09:35:01.162Z,25.80
2019-05-05T09:36:01.128Z,24.80
2019-05-05T09:37:01.111Z,21.90
2019-05-05T09:38:01.111Z,23.10
2019-05-05T09:39:01.088Z,21.60
2019-05-05T09:40:01.072Z,22.20
2019-05-05T09:41:01.070Z,22.80
2019-05-05T09:42:01.049Z,22.90
2019-05-05T09:43:01.043Z,21.60
2019-05-05T09:44:01.071Z,23.40
2019-05-05T09:45:01.015Z,23.40
2019-05-05T09:46:01.010Z,22.80
2019-05-05T09:47:01.060Z,23.10
2019-05-05T09:48:00.984Z,24.70
2019-05-05T09:49:00.973Z,23.40
2019-05-05T09:50:00.979Z,23.10
2019-05-05T09:51:00.947Z,24.10
2019-05-05T09:52:00.942Z,22.10
2019-05-05T09:53:00.935Z,20.60
2019-05-05T09:54:11.940Z,20.60
2019-05-05T09:55:03.811Z,19.60
2019-05-05T09:56:00.895Z,20.30
2019-05-05T09:57:00.946Z,22.80
2019-05-05T09:58:00.872Z,22.40
2019-05-05T09:59:00.862Z,21.10
2019-05-05T10:00:00.854Z,21.00
2019-05-05T10:01:00.867Z,22.60
2019-05-05T10:02:00.830Z,21.60
2019-05-05T10:03:00.819Z,21.60
2019-05-05T10:04:00.802Z,22.40
2019-05-05T10:05:00.793Z,22.40
2019-05-05T10:06:00.786Z,22.00
2019-05-05T10:07:00.791Z,21.80
2019-05-05T10:08:00.758Z,22.10
2019-05-05T10:09:00.748Z,25.10
2019-05-05T10:10:00.738Z,22.20
2019-05-05T10:11:00.731Z,24.00
2019-05-05T10:12:00.720Z,23.80
2019-05-05T10:13:00.729Z,24.10
2019-05-05T10:14:00.691Z,24.30
2019-05-05T10:15:00.681Z,24.10
2019-05-05T10:16:00.669Z,22.60
2019-05-05T10:17:00.659Z,22.20
2019-05-05T10:18:00.646Z,21.50
2019-05-05T10:19:00.657Z,21.20
2019-05-05T10:20:00.634Z,22.80
2019-05-05T10:21:00.612Z,23.40
2019-05-05T10:22:00.600Z,23.30
2019-05-05T10:23:00.588Z,23.60
2019-05-05T10:24:00.595Z,21.20
2019-05-05T10:25:00.587Z,20.50
2019-05-05T10:26:00.557Z,20.30
2019-05-05T10:27:00.545Z,19.00
2019-05-05T10:28:00.534Z,20.10
2019-05-05T10:29:01.255Z,18.90
2019-05-05T10:30:00.512Z,14.20
2019-05-05T10:31:00.527Z,13.90
2019-05-05T10:32:00.491Z,14.80
2019-05-05T10:33:00.479Z,14.60
2019-05-05T10:34:00.469Z,13.20
2019-05-05T10:35:00.454Z,13.60
2019-05-05T10:36:00.439Z,13.00
2019-05-05T10:37:00.455Z,13.90
2019-05-05T10:38:00.421Z,12.60
2019-05-05T10:39:00.405Z,12.30
2019-05-05T10:40:00.393Z,13.20
2019-05-05T10:41:00.379Z,11.90
2019-05-05T10:42:00.381Z,11.90
2019-05-05T10:43:00.387Z,13.20
2019-05-05T10:44:00.348Z,13.40
2019-05-05T10:45:00.332Z,14.10
2019-05-05T10:46:00.322Z,12.70
2019-05-05T10:47:00.326Z,12.70
2019-05-05T10:48:00.327Z,12.60
2019-05-05T10:49:00.303Z,12.50
2019-05-05T10:50:00.276Z,13.20
2019-05-05T10:51:00.269Z,13.40
2019-05-05T10:52:00.255Z,12.90
2019-05-05T10:53:00.243Z,14.70
2019-05-05T10:54:00.230Z,14.70
2019-05-05T10:55:00.244Z,13.10
2019-05-05T10:56:00.235Z,13.10
2019-05-05T10:57:00.196Z,12.30
2019-05-05T10:58:00.183Z,12.00
2019-05-05T10:59:00.167Z,11.10
2019-05-05T11:00:10.079Z,10.50
2019-05-05T11:01:01.163Z,11.40
2019-05-05T11:02:00.145Z,10.20
2019-05-05T11:03:00.134Z,9.60
2019-05-05T11:04:00.117Z,10.20
2019-05-05T11:05:00.095Z,10.10
2019-05-05T11:06:00.092Z,9.70
2019-05-05T11:07:00.099Z,8.90
2019-05-05T11:08:00.057Z,9.60
2019-05-05T11:09:00.053Z,10.40
2019-05-05T11:10:00.038Z,9.80
2019-05-05T11:11:00.043Z,10.60
2019-05-05T11:12:00.019Z,10.20
2019-05-05T11:13:00.060Z,10.50
2019-05-05T11:13:59.996Z,12.00
2019-05-05T11:14:59.978Z,9.20
2019-05-05T11:15:59.989Z,8.60
2019-05-05T11:16:59.961Z,10.40
2019-05-05T11:17:59.956Z,11.30
2019-05-05T11:18:59.951Z,10.30
2019-05-05T11:19:59.944Z,10.80
2019-05-05T11:20:59.957Z,11.30
2019-05-05T11:21:59.902Z,12.40
2019-05-05T11:22:59.888Z,12.00
2019-05-05T11:23:59.879Z,10.60
2019-05-05T11:25:01.183Z,10.60
2019-05-05T11:25:59.879Z,10.00
2019-05-05T11:26:59.871Z,10.80
2019-05-05T11:27:59.834Z,11.20
2019-05-05T11:28:59.834Z,10.70
2019-05-05T11:29:59.808Z,11.00
2019-05-05T11:30:59.845Z,10.90
2019-05-05T11:31:59.787Z,8.40
2019-05-05T11:32:59.779Z,8.40
2019-05-05T11:33:59.767Z,8.70
2019-05-05T11:34:59.755Z,8.00
2019-05-05T11:35:59.745Z,9.50
2019-05-05T11:36:59.759Z,9.50
2019-05-05T11:37:59.720Z,9.20
2019-05-05T11:38:59.707Z,8.70
2019-05-05T11:39:59.699Z,8.70
2019-05-05T11:40:59.692Z,9.50
2019-05-05T11:41:59.685Z,8.80
2019-05-05T11:42:59.680Z,8.90
2019-05-05T11:43:59.659Z,10.30
2019-05-05T11:44:59.643Z,9.10
2019-05-05T11:45:59.648Z,8.10
2019-05-05T11:46:59.627Z,7.70
2019-05-05T11:47:59.613Z,8.00
2019-05-05T11:48:59.630Z,8.00
2019-05-05T11:49:59.605Z,8.20
2019-05-05T11:50:59.576Z,8.60
2019-05-05T11:51:59.569Z,9.00
2019-05-05T11:52:59.553Z,8.00
2019-05-05T11:53:59.548Z,9.40
2019-05-05T11:55:09.686Z,8.00
2019-05-05T11:56:00.524Z,7.80
2019-05-05T11:56:59.509Z,8.00
2019-05-05T11:57:59.498Z,8.70
2019-05-05T11:58:59.487Z,8.20
2019-05-05T11:59:59.474Z,7.30
2019-05-05T12:00:59.481Z,6.60
2019-05-05T12:01:59.467Z,6.90
2019-05-05T12:02:59.439Z,6.90
2019-05-05T12:03:59.431Z,6.90
2019-05-05T12:04:59.427Z,6.80
2019-05-05T12:05:59.405Z,7.20
2019-05-05T12:06:59.409Z,6.90
2019-05-05T12:07:59.390Z,7.70
2019-05-05T12:08:59.383Z,8.30
2019-05-05T12:09:59.362Z,7.60
2019-05-05T12:10:59.361Z,7.60
2019-05-05T12:11:59.338Z,6.90
2019-05-05T12:12:59.344Z,7.60
2019-05-05T12:13:59.318Z,7.10
2019-05-05T12:14:59.311Z,6.90
2019-05-05T12:15:59.296Z,6.70
2019-05-05T12:16:59.281Z,6.90
2019-05-05T12:17:59.281Z,7.00
2019-05-05T12:18:59.280Z,7.10
2019-05-05T12:19:59.268Z,7.80
2019-05-05T12:20:59.234Z,6.90
2019-05-05T12:21:59.222Z,6.90
2019-05-05T12:22:59.256Z,6.90
2019-05-05T12:23:59.210Z,7.50
2019-05-05T12:24:59.205Z,6.70
2019-05-05T12:25:59.183Z,7.10
2019-05-05T12:26:59.164Z,6.30
2019-05-05T12:27:59.159Z,6.80
2019-05-05T12:28:59.143Z,6.00
2019-05-05T12:29:59.132Z,6.40
2019-05-05T12:30:59.138Z,6.50
2019-05-05T12:31:59.104Z,5.90
2019-05-05T12:32:59.096Z,5.80
2019-05-05T12:33:59.090Z,6.30
2019-05-05T12:34:59.068Z,5.60
2019-05-05T12:35:59.058Z,5.10
2019-05-05T12:36:59.067Z,5.50
2019-05-05T12:37:59.035Z,5.40
2019-05-05T12:38:59.028Z,4.80
2019-05-05T12:39:59.014Z,4.90
2019-05-05T12:40:59.003Z,4.30
2019-05-05T12:41:59.005Z,4.40
2019-05-05T12:42:59.002Z,4.10
2019-05-05T12:43:58.968Z,4.00
2019-05-05T12:44:58.956Z,4.40
2019-05-05T12:45:58.940Z,4.00
2019-05-05T12:46:58.930Z,4.30
2019-05-05T12:47:58.929Z,4.20
2019-05-05T12:48:58.928Z,4.60
2019-05-05T12:49:58.897Z,4.60
2019-05-05T12:50:58.887Z,4.60
2019-05-05T12:51:58.872Z,4.40
2019-05-05T12:52:58.862Z,4.40
2019-05-05T12:53:58.863Z,4.90
2019-05-05T12:55:01.828Z,4.60